createdAt,value
2022-11-03T00:00:25.198Z,6.85
2022-11-03T00:02:52.320Z,6.55
2022-11-03T00:05:19.329Z,7.20
2022-11-03T00:07:46.359Z,5.55
2022-11-03T00:10:13.395Z,5.18
2022-11-03T00:12:40.339Z,6.55
2022-11-03T00:15:07.837Z,5.90
2022-11-03T00:17:34.802Z,5.82
2022-11-03T00:20:01.895Z,6.53
2022-11-03T00:22:28.895Z,5.75
2022-11-03T00:24:55.844Z,5.90
2022-11-03T00:27:22.826Z,5.65
2022-11-03T00:29:49.754Z,5.45
2022-11-03T00:32:16.829Z,5.55
2022-11-03T00:34:43.842Z,5.18
2022-11-03T00:37:10.872Z,5.40
2022-11-03T00:39:37.855Z,5.78
2022-11-03T00:42:04.891Z,6.00
2022-11-03T00:44:31.867Z,6.10
2022-11-03T00:46:58.833Z,6.40
2022-11-03T00:49:25.835Z,5.82
2022-11-03T00:51:52.934Z,5.25
2022-11-03T00:54:19.949Z,5.70
2022-11-03T00:56:46.898Z,5.40
2022-11-03T00:59:13.844Z,6.13
2022-11-03T01:01:46.973Z,4.97
2022-11-03T01:04:16.765Z,6.13
2022-11-03T01:06:49.497Z,5.60
2022-11-03T01:09:27.518Z,6.57
2022-11-03T01:12:12.676Z,5.78
2022-11-03T01:14:46.684Z,6.15
2022-11-03T01:17:27.443Z,5.63
2022-11-03T01:19:55.129Z,6.43
2022-11-03T01:22:24.127Z,4.80
2022-11-03T01:24:51.313Z,5.78
2022-11-03T01:27:20.598Z,5.50
2022-11-03T01:29:47.560Z,6.25
2022-11-03T01:32:15.007Z,5.38
2022-11-03T01:34:42.007Z,5.90
2022-11-03T01:37:09.059Z,6.60
2022-11-03T01:39:36.100Z,6.10
2022-11-03T01:42:03.592Z,6.00
2022-11-03T01:44:39.515Z,4.63
2022-11-03T01:47:13.691Z,4.78
2022-11-03T01:49:49.220Z,6.13
2022-11-03T01:52:25.524Z,5.15
2022-11-03T01:55:07.014Z,5.50
2022-11-03T01:57:45.349Z,5.15
2022-11-03T02:00:13.100Z,4.13
2022-11-03T02:02:41.561Z,4.20
2022-11-03T02:05:10.523Z,4.03
2022-11-03T02:07:46.995Z,4.90
2022-11-03T02:10:14.176Z,4.63
2022-11-03T02:12:42.201Z,4.88
2022-11-03T02:15:13.237Z,5.00
2022-11-03T02:17:42.372Z,3.70
2022-11-03T02:20:16.027Z,4.78
2022-11-03T02:22:58.146Z,4.00
2022-11-03T02:25:46.228Z,4.35
2022-11-03T02:28:16.413Z,4.55
2022-11-03T02:30:54.377Z,4.78
2022-11-03T02:33:35.278Z,4.60
2022-11-03T02:36:15.580Z,4.03
2022-11-03T02:39:05.416Z,3.90
2022-11-03T02:41:35.468Z,4.28
2022-11-03T02:44:04.366Z,4.45
2022-11-03T02:46:34.015Z,4.63
2022-11-03T02:49:01.005Z,4.40
2022-11-03T02:51:27.949Z,4.38
2022-11-03T02:54:11.625Z,3.88
2022-11-03T02:56:47.348Z,3.97
2022-11-03T02:59:20.172Z,3.72
2022-11-03T03:01:55.623Z,4.15
2022-11-03T03:04:30.261Z,3.75
2022-11-03T03:07:08.163Z,4.00
2022-11-03T03:09:41.389Z,3.47
2022-11-03T03:12:11.898Z,4.75
2022-11-03T03:14:41.997Z,6.82
2022-11-03T03:17:15.226Z,5.00
2022-11-03T03:19:42.129Z,4.13
2022-11-03T03:22:19.561Z,3.33
2022-11-03T03:24:53.100Z,3.33
2022-11-03T03:27:24.634Z,3.22
2022-11-03T03:30:01.271Z,3.92
2022-11-03T03:32:34.378Z,4.18
2022-11-03T03:35:03.508Z,4.75
2022-11-03T03:37:32.740Z,3.80
2022-11-03T03:40:05.052Z,4.15
2022-11-03T03:42:34.244Z,3.40
2022-11-03T03:45:01.615Z,2.75
2022-11-03T03:47:31.151Z,3.17
2022-11-03T03:49:58.718Z,3.70
2022-11-03T03:52:26.511Z,3.50
2022-11-03T03:54:54.668Z,3.30
2022-11-03T03:57:24.216Z,4.70
2022-11-03T03:59:51.169Z,4.25
2022-11-03T04:02:18.456Z,3.15
2022-11-03T04:04:45.494Z,3.75
2022-11-03T04:07:12.675Z,3.58
2022-11-03T04:09:39.642Z,3.53
2022-11-03T04:12:08.654Z,3.35
2022-11-03T04:14:35.618Z,4.97
2022-11-03T04:17:02.741Z,3.13
2022-11-03T04:19:29.705Z,3.20
2022-11-03T04:21:56.672Z,4.57
2022-11-03T04:24:24.098Z,3.25
2022-11-03T04:26:51.108Z,3.45
2022-11-03T04:29:18.356Z,3.53
2022-11-03T04:31:45.534Z,2.88
2022-11-03T04:34:12.921Z,3.28
2022-11-03T04:36:39.919Z,3.00
2022-11-03T04:39:16.053Z,3.78
2022-11-03T04:41:43.122Z,2.83
2022-11-03T04:44:16.492Z,2.95
2022-11-03T04:46:44.946Z,3.60
2022-11-03T04:49:18.886Z,3.20
2022-11-03T04:51:45.842Z,3.20
2022-11-03T04:54:19.537Z,2.90
2022-11-03T04:56:46.566Z,2.80
2022-11-03T04:59:15.885Z,4.78
2022-11-03T05:01:44.694Z,3.22
2022-11-03T05:04:14.355Z,3.80
2022-11-03T05:06:42.194Z,3.35
2022-11-03T05:09:15.798Z,3.15
2022-11-03T05:11:45.336Z,3.15
2022-11-03T05:14:21.193Z,4.65
2022-11-03T05:16:50.062Z,4.72
2022-11-03T05:19:28.794Z,4.13
2022-11-03T05:21:58.051Z,5.30
2022-11-03T05:24:25.051Z,4.47
2022-11-03T05:26:54.376Z,3.70
2022-11-03T05:29:25.436Z,3.35
2022-11-03T05:31:54.677Z,4.55
2022-11-03T05:34:30.531Z,3.28
2022-11-03T05:37:21.945Z,3.55
2022-11-03T05:39:53.675Z,3.60
2022-11-03T05:42:25.200Z,3.53
2022-11-03T05:44:52.633Z,5.82
2022-11-03T05:47:31.191Z,5.28
2022-11-03T05:50:15.782Z,4.43
2022-11-03T05:52:44.392Z,3.53
2022-11-03T05:55:33.043Z,4.00
2022-11-03T05:58:11.710Z,5.35
2022-11-03T06:00:45.593Z,5.10
2022-11-03T06:03:24.446Z,5.40
2022-11-03T06:05:53.126Z,4.28
2022-11-03T06:08:30.457Z,4.68
2022-11-03T06:10:59.937Z,4.60
2022-11-03T06:13:30.855Z,4.03
2022-11-03T06:16:01.654Z,4.60
2022-11-03T06:18:36.137Z,4.90
2022-11-03T06:21:08.978Z,3.92
2022-11-03T06:23:37.427Z,4.03
2022-11-03T06:26:15.963Z,4.78
2022-11-03T06:28:43.043Z,4.40
2022-11-03T06:31:30.411Z,5.00
2022-11-03T06:33:58.714Z,5.05
2022-11-03T06:36:35.136Z,3.83
2022-11-03T06:39:09.540Z,4.20
2022-11-03T06:41:37.061Z,4.10
2022-11-03T06:44:23.752Z,3.70
2022-11-03T06:46:54.198Z,4.68
2022-11-03T06:49:35.287Z,6.50
2022-11-03T06:52:14.960Z,9.25
2022-11-03T06:54:41.977Z,8.02
2022-11-03T06:57:14.763Z,5.88
2022-11-03T06:59:41.770Z,4.32
2022-11-03T07:02:45.490Z,4.32
2022-11-03T07:05:21.402Z,8.15
2022-11-03T07:07:48.621Z,8.05
2022-11-03T07:10:16.114Z,12.38
2022-11-03T07:12:43.617Z,9.93
2022-11-03T07:15:25.427Z,10.93
2022-11-03T07:17:52.950Z,8.98
2022-11-03T07:20:20.023Z,9.35
2022-11-03T07:22:48.310Z,6.93
2022-11-03T07:25:21.767Z,7.35
2022-11-03T07:27:51.613Z,6.70
2022-11-03T07:30:30.306Z,8.13
2022-11-03T07:33:01.183Z,8.50
2022-11-03T07:35:53.190Z,7.72
2022-11-03T07:38:21.872Z,7.13
2022-11-03T07:40:50.742Z,6.18
2022-11-03T07:43:36.300Z,7.20
2022-11-03T07:46:09.666Z,6.68
2022-11-03T07:48:44.011Z,10.95
2022-11-03T07:51:21.959Z,7.55
2022-11-03T07:53:52.641Z,7.82
2022-11-03T07:56:21.544Z,6.85
2022-11-03T07:59:13.963Z,6.65
2022-11-03T08:01:43.750Z,6.97
2022-11-03T08:04:14.168Z,8.07
2022-11-03T08:06:41.267Z,8.90
2022-11-03T08:09:08.637Z,7.20
2022-11-03T08:11:35.620Z,6.72
2022-11-03T08:14:02.670Z,6.82
2022-11-03T08:16:29.737Z,6.53
2022-11-03T08:18:56.912Z,6.13
2022-11-03T08:21:23.962Z,6.10
2022-11-03T08:23:51.380Z,6.03
2022-11-03T08:26:18.808Z,6.70
2022-11-03T08:28:46.086Z,8.25
2022-11-03T08:31:16.168Z,7.82
2022-11-03T08:33:43.414Z,8.05
2022-11-03T08:36:11.086Z,7.72
2022-11-03T08:38:38.440Z,7.65
2022-11-03T08:41:05.617Z,7.32
2022-11-03T08:43:32.684Z,7.57
2022-11-03T08:46:09.669Z,8.43
2022-11-03T08:48:42.687Z,8.10
2022-11-03T08:51:09.796Z,8.15
2022-11-03T08:53:36.896Z,9.45
2022-11-03T08:56:04.049Z,6.88
2022-11-03T08:58:33.787Z,8.05
2022-11-03T09:01:00.786Z,7.18
2022-11-03T09:03:28.041Z,9.07
2022-11-03T09:05:55.166Z,8.27
2022-11-03T09:11:09.234Z,6.90
2022-11-03T09:13:36.351Z,6.55
2022-11-03T09:16:03.558Z,7.78
2022-11-03T09:18:30.537Z,7.38
2022-11-03T09:20:57.783Z,7.70
2022-11-03T09:23:24.851Z,8.50
2022-11-03T09:25:51.822Z,8.43
2022-11-03T09:28:18.893Z,6.90
2022-11-03T09:30:45.933Z,6.15
2022-11-03T09:33:15.655Z,6.75
2022-11-03T09:35:42.762Z,6.68
2022-11-03T09:38:09.938Z,5.78
2022-11-03T09:40:37.528Z,6.10
2022-11-03T09:43:04.916Z,6.28
2022-11-03T09:45:32.676Z,7.47
2022-11-03T09:48:00.980Z,7.70
2022-11-03T09:50:28.374Z,7.65
2022-11-03T09:52:56.584Z,6.88
2022-11-03T09:55:26.508Z,7.22
2022-11-03T09:58:02.003Z,7.15
2022-11-03T10:00:29.100Z,6.47
2022-11-03T10:02:56.527Z,5.90
2022-11-03T10:05:26.083Z,7.30
2022-11-03T10:07:58.987Z,7.03
2022-11-03T10:10:26.829Z,7.20
2022-11-03T10:12:54.111Z,6.82
2022-11-03T10:15:23.560Z,7.05
2022-11-03T10:17:51.561Z,6.82
2022-11-03T10:20:21.210Z,7.32
2022-11-03T10:22:53.394Z,7.15
2022-11-03T10:25:41.454Z,7.13
2022-11-03T10:28:25.827Z,6.90
2022-11-03T10:31:12.669Z,7.25
2022-11-03T10:33:51.369Z,7.03
2022-11-03T10:36:18.294Z,6.82
2022-11-03T10:38:45.322Z,5.90
2022-11-03T10:41:15.230Z,6.75
2022-11-03T10:43:44.730Z,6.45
2022-11-03T10:46:36.625Z,6.78
2022-11-03T10:49:05.051Z,6.50
2022-11-03T10:51:35.821Z,6.82
2022-11-03T10:54:04.854Z,6.57
2022-11-03T10:56:32.734Z,6.35
2022-11-03T10:59:00.715Z,6.75
2022-11-03T11:01:27.966Z,6.35
2022-11-03T11:03:55.539Z,6.53
2022-11-03T11:06:28.630Z,6.85
2022-11-03T11:09:01.801Z,6.80
2022-11-03T11:11:28.970Z,6.93
2022-11-03T11:14:28.253Z,7.30
2022-11-03T11:16:57.637Z,6.28
2022-11-03T11:19:26.529Z,7.03
2022-11-03T11:21:54.484Z,6.75
2022-11-03T11:24:43.377Z,6.95
2022-11-03T11:27:36.667Z,6.70
2022-11-03T11:30:27.662Z,6.45
2022-11-03T11:33:22.446Z,6.85
2022-11-03T11:35:49.426Z,6.72
2022-11-03T11:38:44.957Z,6.25
2022-11-03T11:41:11.946Z,6.90
2022-11-03T11:43:39.133Z,6.25
2022-11-03T11:46:33.536Z,6.70
2022-11-03T11:49:16.254Z,6.63
2022-11-03T11:51:43.340Z,6.28
2022-11-03T11:54:20.567Z,6.80
2022-11-03T11:56:49.800Z,7.28
2022-11-03T11:59:24.772Z,6.50
2022-11-03T12:01:55.433Z,5.38
2022-11-03T12:04:28.392Z,5.50
2022-11-03T12:06:55.512Z,5.35
2022-11-03T12:09:25.412Z,5.22
2022-11-03T12:11:56.123Z,5.18
2022-11-03T12:14:40.042Z,5.15
2022-11-03T12:17:15.933Z,4.45
2022-11-03T12:19:52.879Z,5.03
2022-11-03T12:22:25.724Z,4.70
2022-11-03T12:24:56.100Z,4.32
2022-11-03T12:27:26.465Z,4.53
2022-11-03T12:29:55.728Z,4.60
2022-11-03T12:32:33.498Z,4.95
2022-11-03T12:35:05.705Z,4.93
2022-11-03T12:37:32.742Z,4.47
2022-11-03T12:39:59.807Z,5.00
2022-11-03T12:42:26.794Z,4.20
2022-11-03T12:44:53.830Z,4.47
2022-11-03T12:47:21.066Z,4.93
2022-11-03T12:49:48.405Z,4.43
2022-11-03T12:52:15.569Z,4.43
2022-11-03T12:54:42.611Z,4.78
2022-11-03T12:57:09.751Z,4.63
2022-11-03T12:59:36.941Z,4.68
2022-11-03T13:02:04.242Z,4.68
2022-11-03T13:04:31.431Z,4.57
2022-11-03T13:06:58.490Z,5.68
2022-11-03T13:09:25.488Z,8.82
2022-11-03T13:11:52.464Z,7.75
2022-11-03T13:14:19.482Z,8.65
2022-11-03T13:16:46.452Z,6.93
2022-11-03T13:19:13.476Z,6.38
2022-11-03T13:21:40.444Z,5.38
2022-11-03T13:24:07.505Z,4.80
2022-11-03T13:26:34.646Z,4.93
2022-11-03T13:29:01.708Z,4.57
2022-11-03T13:31:28.754Z,3.97
2022-11-03T13:33:55.713Z,4.60
2022-11-03T13:36:22.721Z,4.55
2022-11-03T13:38:49.762Z,4.30
2022-11-03T13:41:16.711Z,4.43
2022-11-03T13:43:43.701Z,4.43
2022-11-03T13:46:10.704Z,4.47
2022-11-03T13:49:31.862Z,3.95
2022-11-03T13:51:24.695Z,4.30
2022-11-03T13:59:26.364Z,4.60
2022-11-03T14:04:41.281Z,3.97
2022-11-03T14:07:08.681Z,4.30
2022-11-03T14:12:03.846Z,4.15
2022-11-03T14:14:31.487Z,3.75
2022-11-03T14:16:58.470Z,4.22
2022-11-03T14:19:31.745Z,4.03
2022-11-03T14:22:04.215Z,4.03
2022-11-03T14:24:31.268Z,3.88
2022-11-03T14:26:58.316Z,3.30
2022-11-03T14:29:25.361Z,3.90
2022-11-03T14:31:52.603Z,3.40
2022-11-03T14:34:19.641Z,3.72
2022-11-03T14:36:46.756Z,3.20
2022-11-03T14:39:14.043Z,2.78
2022-11-03T14:41:41.073Z,3.20
2022-11-03T14:44:08.039Z,2.45
2022-11-03T14:46:34.991Z,2.88
2022-11-03T14:49:02.012Z,2.80
2022-11-03T14:51:30.115Z,3.25
2022-11-03T14:53:57.389Z,2.97
2022-11-03T14:56:24.736Z,3.03
2022-11-03T14:58:51.942Z,3.10
2022-11-03T15:01:20.224Z,3.10
2022-11-03T15:03:47.370Z,3.38
2022-11-03T15:06:14.455Z,3.22
2022-11-03T15:08:41.443Z,4.68
2022-11-03T15:11:08.967Z,3.80
2022-11-03T15:13:41.655Z,3.53
2022-11-03T15:16:13.017Z,3.80
2022-11-03T15:18:40.061Z,4.50
2022-11-03T15:21:07.064Z,4.65
2022-11-03T15:26:21.074Z,4.15
2022-11-03T15:28:48.163Z,3.75
2022-11-03T15:31:15.138Z,4.05
2022-11-03T15:33:42.145Z,3.78
2022-11-03T15:36:09.277Z,3.22
2022-11-03T15:38:36.279Z,3.83
2022-11-03T15:41:03.382Z,3.10
2022-11-03T15:43:30.434Z,3.05
2022-11-03T15:45:57.460Z,3.53
2022-11-03T15:48:24.482Z,3.13
2022-11-03T15:50:51.479Z,2.95
2022-11-03T15:53:18.478Z,3.20
2022-11-03T15:55:45.442Z,3.35
2022-11-03T15:58:12.409Z,4.00
2022-11-03T16:00:39.420Z,3.30
2022-11-03T16:03:06.500Z,3.50
2022-11-03T16:05:33.694Z,3.10
2022-11-03T16:08:00.655Z,3.30
2022-11-03T16:10:27.619Z,3.63
2022-11-03T16:12:54.633Z,23.75
2022-11-03T16:15:21.666Z,16.42
2022-11-03T16:17:48.609Z,4.60
2022-11-03T16:20:15.609Z,3.38
2022-11-03T16:22:43.432Z,3.42
2022-11-03T16:25:13.421Z,3.65
2022-11-03T16:27:42.649Z,3.70
2022-11-03T16:30:10.422Z,3.20
2022-11-03T16:32:37.741Z,3.90
2022-11-03T16:35:05.223Z,3.78
2022-11-03T16:37:32.331Z,4.28
2022-11-03T16:39:59.327Z,4.28
2022-11-03T16:42:26.388Z,3.55
2022-11-03T16:44:53.386Z,3.58
2022-11-03T16:47:20.335Z,13.38
2022-11-03T16:49:47.382Z,3.90
2022-11-03T16:52:15.376Z,3.83
2022-11-03T16:54:42.321Z,5.22
2022-11-03T16:57:09.267Z,3.00
2022-11-03T16:59:36.250Z,13.98
2022-11-03T17:02:03.380Z,3.58
2022-11-03T17:04:30.444Z,3.50
2022-11-03T17:06:57.545Z,3.15
2022-11-03T17:09:24.537Z,7.88
2022-11-03T17:11:51.529Z,4.93
2022-11-03T17:14:18.509Z,3.03
2022-11-03T17:16:45.647Z,2.90
2022-11-03T17:19:13.559Z,2.85
2022-11-03T17:21:40.628Z,3.47
2022-11-03T17:24:08.279Z,3.28
2022-11-03T17:26:43.351Z,2.97
2022-11-03T17:29:17.416Z,3.67
2022-11-03T17:31:44.537Z,3.53
2022-11-03T17:34:11.830Z,4.03
2022-11-03T17:36:39.165Z,3.67
2022-11-03T17:39:06.164Z,3.05
2022-11-03T17:41:35.371Z,3.95
2022-11-03T17:44:02.517Z,5.95
2022-11-03T17:46:30.525Z,5.82
2022-11-03T17:48:57.594Z,7.75
2022-11-03T17:51:24.681Z,7.47
2022-11-03T17:53:51.847Z,6.88
2022-11-03T17:56:30.157Z,7.22
2022-11-03T17:58:58.169Z,6.63
2022-11-03T18:01:26.610Z,6.72
2022-11-03T18:03:53.911Z,6.82
2022-11-03T18:06:21.652Z,7.18
2022-11-03T18:08:49.151Z,6.22
2022-11-03T18:11:24.324Z,5.18
2022-11-03T18:13:51.383Z,10.20
2022-11-03T18:16:18.469Z,14.70
2022-11-03T18:18:45.715Z,13.95
2022-11-03T18:21:21.806Z,17.10
2022-11-03T18:23:48.985Z,57.72
2022-11-03T18:26:21.365Z,75.57
2022-11-03T18:28:49.320Z,37.58
2022-11-03T18:31:23.530Z,29.48
2022-11-03T18:33:52.014Z,9.95
2022-11-03T18:36:20.053Z,5.10
2022-11-03T18:38:47.633Z,4.05
2022-11-03T18:41:19.820Z,3.53
2022-11-03T18:43:46.810Z,6.88
2022-11-03T18:46:13.780Z,9.68
2022-11-03T18:48:40.995Z,13.13
2022-11-03T18:51:08.753Z,10.90
2022-11-03T18:53:35.769Z,11.60
2022-11-03T18:56:02.837Z,10.55
2022-11-03T18:58:32.955Z,11.63
2022-11-03T19:01:00.015Z,11.05
2022-11-03T19:03:27.707Z,10.98
2022-11-03T19:05:54.833Z,10.23
2022-11-03T19:08:32.998Z,9.80
2022-11-03T19:11:00.454Z,12.32
2022-11-03T19:13:35.167Z,23.85
2022-11-03T19:16:09.443Z,18.70
2022-11-03T19:18:36.642Z,18.08
2022-11-03T19:21:11.639Z,16.67
2022-11-03T19:23:38.660Z,10.88
2022-11-03T19:26:12.920Z,7.63
2022-11-03T19:28:39.944Z,5.40
2022-11-03T19:31:14.009Z,5.20
2022-11-03T19:33:42.568Z,5.53
2022-11-03T19:36:09.622Z,10.65
2022-11-03T19:38:36.641Z,10.68
2022-11-03T19:41:03.684Z,22.92
2022-11-03T19:43:34.616Z,20.58
2022-11-03T19:46:04.178Z,68.45
2022-11-03T19:48:34.125Z,19.88
2022-11-03T19:51:02.654Z,25.73
2022-11-03T19:53:29.891Z,17.85
2022-11-03T19:55:57.096Z,17.90
2022-11-03T19:58:26.678Z,16.52
2022-11-03T20:00:54.839Z,16.60
2022-11-03T20:03:23.096Z,13.45
2022-11-03T20:05:57.152Z,12.98
2022-11-03T20:08:30.845Z,12.75
2022-11-03T20:10:58.175Z,10.98
2022-11-03T20:13:29.182Z,12.88
2022-11-03T20:16:00.754Z,9.57
2022-11-03T20:18:28.653Z,8.65
2022-11-03T20:20:56.234Z,8.45
2022-11-03T20:23:28.618Z,8.20
2022-11-03T20:25:57.201Z,7.78
2022-11-03T20:28:27.251Z,7.88
2022-11-03T20:30:55.033Z,7.65
2022-11-03T20:33:24.971Z,7.38
2022-11-03T20:35:55.484Z,6.53
2022-11-03T20:38:24.819Z,6.82
2022-11-03T20:40:54.430Z,8.63
2022-11-03T20:43:27.826Z,13.30
2022-11-03T20:45:56.698Z,22.08
2022-11-03T20:48:24.136Z,21.45
2022-11-03T20:50:52.139Z,20.65
2022-11-03T20:53:22.296Z,20.88
2022-11-03T20:55:50.555Z,20.70
2022-11-03T20:58:18.125Z,20.92
2022-11-03T21:00:47.121Z,20.90
2022-11-03T21:06:16.490Z,19.63
2022-11-03T21:08:44.586Z,17.83
2022-11-03T21:11:20.813Z,20.10
2022-11-03T21:13:48.415Z,17.25
2022-11-03T21:16:24.746Z,14.63
2022-11-03T21:18:51.939Z,12.90
2022-11-03T21:21:21.234Z,12.25
2022-11-03T21:23:49.580Z,11.23
2022-11-03T21:26:16.645Z,12.50
2022-11-03T21:28:43.697Z,12.60
2022-11-03T21:31:13.129Z,12.15
2022-11-03T21:33:40.188Z,14.52
2022-11-03T21:36:07.584Z,16.10
2022-11-03T21:38:34.600Z,13.60
2022-11-03T21:41:01.581Z,14.55
2022-11-03T21:43:29.596Z,12.07
2022-11-03T21:46:07.866Z,15.85
2022-11-03T21:48:36.004Z,15.63
2022-11-03T21:51:03.747Z,14.95
2022-11-03T21:53:31.225Z,14.73
2022-11-03T21:55:58.205Z,83.13
2022-11-03T21:58:25.175Z,18.83
2022-11-03T22:00:52.218Z,35.53
2022-11-03T22:03:20.263Z,16.27
2022-11-03T22:05:47.254Z,11.90
2022-11-03T22:08:14.243Z,10.15
2022-11-03T22:10:41.275Z,12.75
2022-11-03T22:13:08.646Z,14.73
2022-11-03T22:15:35.965Z,11.95
2022-11-03T22:18:04.717Z,13.02
2022-11-03T22:20:31.876Z,19.13
2022-11-03T22:23:02.067Z,18.30
2022-11-03T22:25:29.190Z,13.85
2022-11-03T22:27:57.139Z,13.20
2022-11-03T22:30:24.142Z,14.80
2022-11-03T22:32:53.423Z,14.93
2022-11-03T22:35:22.034Z,14.05
2022-11-03T22:38:26.970Z,18.85
2022-11-03T22:40:53.997Z,14.68
2022-11-03T22:43:21.572Z,14.32
2022-11-03T22:45:48.618Z,15.38
2022-11-03T22:48:15.741Z,15.05
2022-11-03T22:50:43.274Z,13.32
2022-11-03T22:53:10.513Z,12.20
2022-11-03T22:55:37.670Z,12.65
2022-11-03T22:58:04.628Z,11.80
2022-11-03T23:00:31.844Z,12.27
2022-11-03T23:02:58.892Z,11.68
2022-11-03T23:05:25.913Z,15.48
2022-11-03T23:07:52.926Z,17.55
2022-11-03T23:10:20.045Z,17.25
2022-11-03T23:12:47.050Z,19.25
2022-11-03T23:15:14.223Z,20.05
2022-11-03T23:17:41.235Z,20.02
2022-11-03T23:20:08.905Z,19.83
2022-11-03T23:22:35.956Z,13.45
2022-11-03T23:25:03.212Z,14.75
2022-11-03T23:27:30.235Z,14.30
2022-11-03T23:29:57.198Z,15.23
2022-11-03T23:32:24.364Z,15.02
2022-11-03T23:34:51.388Z,15.77
2022-11-03T23:37:18.333Z,15.43
2022-11-03T23:39:45.334Z,14.55
2022-11-03T23:42:12.340Z,11.68
2022-11-03T23:44:39.409Z,11.68
2022-11-03T23:47:08.310Z,12.32
2022-11-03T23:49:35.343Z,9.77
2022-11-03T23:52:02.393Z,8.45
2022-11-03T23:54:29.481Z,7.18
2022-11-03T23:56:56.482Z,7.13
2022-11-03T23:59:24.245Z,6.35
